createdAt,value
2023-05-19T00:00:49.072Z,0.43
2023-05-19T00:02:06.106Z,0.31
2023-05-19T00:03:24.521Z,0.77
2023-05-19T00:04:46.563Z,0.51
2023-05-19T00:06:07.917Z,0.54
2023-05-19T00:07:24.879Z,0.43
2023-05-19T00:08:45.370Z,0.42
2023-05-19T00:10:07.794Z,0.46
2023-05-19T00:11:35.569Z,0.38
2023-05-19T00:12:56.328Z,0.54
2023-05-19T00:14:13.806Z,0.2
2023-05-19T00:15:33.734Z,0.23
2023-05-19T00:16:51.936Z,0.22
2023-05-19T00:18:14.081Z,0.52
2023-05-19T00:19:32.712Z,0.24
2023-05-19T00:21:03.367Z,0.28
2023-05-19T00:22:26.607Z,0.34
2023-05-19T00:23:49.810Z,0.47
2023-05-19T00:25:16.692Z,0.65
2023-05-19T00:26:37.983Z,0.51
2023-05-19T00:28:09.731Z,0.47
2023-05-19T00:29:40.840Z,0.36
2023-05-19T00:30:58.947Z,0.48
2023-05-19T00:32:22.981Z,0.66
2023-05-19T00:33:48.035Z,0.24
2023-05-19T00:35:06.722Z,0.54
2023-05-19T00:36:32.374Z,0.42
2023-05-19T00:38:07.396Z,0.24
2023-05-19T00:39:39.678Z,0.26
2023-05-19T00:41:01.182Z,0
2023-05-19T00:42:26.614Z,0
2023-05-19T00:43:53.796Z,0.09
2023-05-19T00:45:16.769Z,0.21
2023-05-19T00:46:50.738Z,0.48
2023-05-19T00:48:12.626Z,0.26
2023-05-19T00:51:15.691Z,0
2023-05-19T00:52:50.483Z,0.14
2023-05-19T00:54:21.672Z,0.23
2023-05-19T00:55:40.068Z,0.08
2023-05-19T00:57:02.905Z,0
2023-05-19T00:58:26.787Z,0
2023-05-19T01:00:04.156Z,0.13
2023-05-19T01:01:33.808Z,0
2023-05-19T01:03:01.596Z,0.22
2023-05-19T01:04:29.932Z,0.16
2023-05-19T01:05:52.568Z,0.12
2023-05-19T01:07:11.668Z,0.14
2023-05-19T01:08:46.463Z,0
2023-05-19T01:10:18.644Z,0
2023-05-19T01:11:36.757Z,0
2023-05-19T01:13:01.178Z,0
2023-05-19T01:14:23.177Z,0.15
2023-05-19T01:15:44.055Z,0
2023-05-19T01:17:14.781Z,0
2023-05-19T01:18:33.605Z,0.16
2023-05-19T01:19:53.022Z,0
2023-05-19T01:21:13.832Z,0
2023-05-19T01:22:33.882Z,0
2023-05-19T01:23:57.991Z,0
2023-05-19T01:25:17.633Z,0.16
2023-05-19T01:26:36.924Z,0.09
2023-05-19T01:27:54.745Z,0
2023-05-19T01:29:26.158Z,0
2023-05-19T01:30:45.799Z,0
2023-05-19T01:32:13.954Z,0
2023-05-19T01:34:55.132Z,0
2023-05-19T01:36:31.343Z,0.13
2023-05-19T01:38:00.922Z,0
2023-05-19T01:39:28.824Z,0
2023-05-19T01:40:56.217Z,0.14
2023-05-19T01:42:25.880Z,0
2023-05-19T01:43:43.641Z,0
2023-05-19T01:45:11.330Z,0.14
2023-05-19T01:46:46.779Z,0
2023-05-19T01:48:10.977Z,0
2023-05-19T01:49:32.550Z,0
2023-05-19T01:51:02.935Z,0
2023-05-19T01:52:28.098Z,0
2023-05-19T01:53:49.263Z,0
2023-05-19T01:55:11.484Z,0
2023-05-19T01:56:35.700Z,0
2023-05-19T01:59:31.346Z,0
2023-05-19T02:01:00.363Z,0
2023-05-19T02:02:35.188Z,0
2023-05-19T02:03:58.421Z,0
2023-05-19T02:05:19.681Z,0
2023-05-19T02:06:39.047Z,0
2023-05-19T02:07:58.097Z,0
2023-05-19T02:09:19.624Z,0
2023-05-19T02:10:36.836Z,0
2023-05-19T02:11:56.745Z,0
2023-05-19T02:13:25.087Z,0
2023-05-19T02:14:57.868Z,0
2023-05-19T02:16:23.714Z,0
2023-05-19T02:17:56.402Z,0.15
2023-05-19T02:19:19.590Z,0
2023-05-19T02:20:41.829Z,0
2023-05-19T02:22:01.341Z,0
2023-05-19T02:23:23.415Z,0.4
2023-05-19T02:24:47.436Z,0.1
2023-05-19T02:26:08.761Z,0
2023-05-19T02:27:37.017Z,0
2023-05-19T02:29:01.367Z,0.18
2023-05-19T02:30:21.810Z,0
2023-05-19T02:31:39.828Z,0
2023-05-19T02:33:08.699Z,0
2023-05-19T02:34:29.871Z,0
2023-05-19T02:36:11.738Z,0
2023-05-19T02:38:59.018Z,0
2023-05-19T02:40:26.009Z,0
2023-05-19T02:41:46.724Z,0
2023-05-19T02:43:10.684Z,0
2023-05-19T02:44:35.012Z,0
2023-05-19T02:45:54.105Z,0
2023-05-19T02:47:21.651Z,0.12
2023-05-19T02:48:43.867Z,0
2023-05-19T02:50:05.117Z,0
2023-05-19T02:51:25.661Z,0
2023-05-19T02:53:03.313Z,0
2023-05-19T02:54:25.993Z,0.28
2023-05-19T02:55:51.285Z,0
2023-05-19T02:57:10.002Z,0
2023-05-19T02:58:33.458Z,0
2023-05-19T02:59:51.972Z,0
2023-05-19T03:01:12.897Z,0
2023-05-19T03:02:34.669Z,0.18
2023-05-19T03:03:59.185Z,0.13
2023-05-19T03:05:22.040Z,0.32
2023-05-19T03:06:52.167Z,0
2023-05-19T03:08:23.583Z,0
2023-05-19T03:09:45.692Z,0
2023-05-19T03:11:05.974Z,0
2023-05-19T03:12:26.852Z,0.14
2023-05-19T03:13:58.707Z,0.16
2023-05-19T03:15:15.957Z,0
2023-05-19T03:16:36.085Z,0
2023-05-19T03:17:58.608Z,0.1
2023-05-19T03:19:23.677Z,0
2023-05-19T03:20:47.175Z,0.07
2023-05-19T03:22:06.203Z,0.13
2023-05-19T03:23:35.742Z,0.1
2023-05-19T03:25:05.600Z,0.17
2023-05-19T03:26:38.836Z,0
2023-05-19T03:28:20.742Z,0
2023-05-19T03:29:38.422Z,0
2023-05-19T03:32:23.190Z,0
2023-05-19T03:33:40.704Z,0
2023-05-19T03:35:01.210Z,0
2023-05-19T03:36:32.265Z,0
2023-05-19T03:37:57.262Z,0
2023-05-19T03:39:17.014Z,0
2023-05-19T03:40:35.159Z,0
2023-05-19T03:41:57.286Z,0
2023-05-19T03:43:24.478Z,0.15
2023-05-19T03:44:44.215Z,0
2023-05-19T03:46:09.323Z,0
2023-05-19T03:47:30.478Z,0
2023-05-19T03:48:58.631Z,0.22
2023-05-19T03:50:24.059Z,0.2
2023-05-19T03:51:49.064Z,0
2023-05-19T03:53:10.347Z,0
2023-05-19T03:54:43.430Z,0
2023-05-19T03:56:03.363Z,0
2023-05-19T03:57:26.109Z,0
2023-05-19T03:58:48.470Z,0
2023-05-19T04:00:19.838Z,0.16
2023-05-19T04:01:38.286Z,0
2023-05-19T04:03:00.025Z,0
2023-05-19T04:04:19.231Z,0.26
2023-05-19T04:05:40.884Z,0
2023-05-19T04:07:04.096Z,0.2
2023-05-19T04:08:28.894Z,0.17
2023-05-19T04:09:53.600Z,0.3
2023-05-19T04:11:21.096Z,0.2
2023-05-19T04:12:45.899Z,0.13
2023-05-19T04:14:24.089Z,0.44
2023-05-19T04:15:51.766Z,0.25
2023-05-19T04:17:15.045Z,0.36
2023-05-19T04:18:43.157Z,0.15
2023-05-19T04:20:02.096Z,0.12
2023-05-19T04:21:25.972Z,0.12
2023-05-19T04:24:36.052Z,0.34
2023-05-19T04:26:02.064Z,0.58
2023-05-19T04:27:25.291Z,0
2023-05-19T04:28:51.035Z,0.26
2023-05-19T04:30:18.745Z,0.4
2023-05-19T04:31:45.065Z,0.09
2023-05-19T04:33:06.292Z,0.31
2023-05-19T04:34:35.234Z,0.21
2023-05-19T04:35:59.246Z,0.22
2023-05-19T04:37:22.258Z,0.26
2023-05-19T04:38:47.747Z,0.31
2023-05-19T04:40:06.332Z,0.16
2023-05-19T04:41:30.805Z,0
2023-05-19T04:42:50.857Z,0.25
2023-05-19T04:44:23.019Z,0
2023-05-19T04:45:47.637Z,0.33
2023-05-19T04:47:19.936Z,0.17
2023-05-19T04:48:47.505Z,0.15
2023-05-19T04:50:15.336Z,0
2023-05-19T04:51:40.915Z,0.21
2023-05-19T04:53:06.639Z,0.2
2023-05-19T04:54:28.073Z,0.25
2023-05-19T04:56:08.594Z,0.35
2023-05-19T04:57:37.063Z,0.22
2023-05-19T04:59:09.252Z,0.35
2023-05-19T05:00:32.055Z,0.42
2023-05-19T05:01:51.096Z,0.18
2023-05-19T05:03:13.181Z,0
2023-05-19T05:04:38.107Z,0.37
2023-05-19T05:06:05.318Z,0.21
2023-05-19T05:07:26.955Z,0.18
2023-05-19T05:08:53.687Z,0.47
2023-05-19T05:10:13.804Z,0.16
2023-05-19T05:11:31.436Z,0.2
2023-05-19T05:12:55.367Z,0.15
2023-05-19T05:14:21.820Z,0.46
2023-05-19T05:15:44.584Z,0.27
2023-05-19T05:17:02.183Z,0.18
2023-05-19T05:18:32.760Z,0.24
2023-05-19T05:19:56.105Z,0.19
2023-05-19T05:21:18.026Z,0.47
2023-05-19T05:22:39.130Z,0.24
2023-05-19T05:24:07.254Z,0
2023-05-19T05:25:30.473Z,0
2023-05-19T05:27:00.259Z,0.11
2023-05-19T05:28:22.039Z,0.15
2023-05-19T05:29:42.449Z,0.24
2023-05-19T05:31:01.197Z,0.25
2023-05-19T05:32:29.798Z,0.14
2023-05-19T05:34:01.475Z,0.39
2023-05-19T05:35:25.751Z,0.43
2023-05-19T05:36:45.685Z,0.27
2023-05-19T05:38:12.151Z,0.34
2023-05-19T05:39:37.284Z,0.28
2023-05-19T05:41:05.477Z,0.47
2023-05-19T05:42:28.969Z,0.4
2023-05-19T05:43:59.950Z,0.56
2023-05-19T05:45:19.301Z,0.45
2023-05-19T05:46:43.518Z,0.21
2023-05-19T05:48:08.749Z,0
2023-05-19T05:49:32.256Z,0.2
2023-05-19T05:50:57.234Z,0.31
2023-05-19T05:52:23.456Z,0.56
2023-05-19T05:53:45.692Z,0.26
2023-05-19T05:55:07.864Z,0.4
2023-05-19T05:56:34.891Z,0.4
2023-05-19T05:57:56.251Z,0.51
2023-05-19T05:59:19.343Z,0.64
2023-05-19T06:00:39.591Z,0.58
2023-05-19T06:02:06.571Z,0.52
2023-05-19T06:03:35.028Z,0.43
2023-05-19T06:05:08.163Z,0.6
2023-05-19T06:06:35.918Z,0.11
2023-05-19T06:08:08.095Z,0.79
2023-05-19T06:09:26.247Z,0.56
2023-05-19T06:10:48.171Z,0.66
2023-05-19T06:12:14.592Z,0.19
2023-05-19T06:13:36.769Z,0.4
2023-05-19T06:14:57.570Z,0.61
2023-05-19T06:16:21.882Z,0.68
2023-05-19T06:17:43.394Z,0.74
2023-05-19T06:19:16.100Z,0.88
2023-05-19T06:20:35.136Z,1.1
2023-05-19T06:21:57.122Z,1.01
2023-05-19T06:23:31.147Z,1.08
2023-05-19T06:24:58.155Z,0.62
2023-05-19T06:26:18.076Z,0.29
2023-05-19T06:27:39.314Z,0.47
2023-05-19T06:28:59.640Z,0.58
2023-05-19T06:30:25.244Z,0.53
2023-05-19T06:31:57.458Z,1.02
2023-05-19T06:33:21.894Z,0.66
2023-05-19T06:34:44.906Z,0.28
2023-05-19T06:36:25.143Z,0.34
2023-05-19T06:37:52.838Z,0.8
2023-05-19T06:39:21.000Z,0.3
2023-05-19T06:40:56.440Z,0.78
2023-05-19T06:42:17.084Z,0.6
2023-05-19T06:45:09.591Z,0.79
2023-05-19T06:46:33.352Z,0.65
2023-05-19T06:47:54.178Z,0.66
2023-05-19T06:49:15.359Z,0.71
2023-05-19T06:50:36.224Z,0.51
2023-05-19T06:52:00.298Z,0.52
2023-05-19T06:53:32.528Z,0.52
2023-05-19T06:54:51.669Z,0.46
2023-05-19T06:56:21.091Z,0.48
2023-05-19T06:57:45.945Z,0.64
2023-05-19T06:59:07.229Z,0.41
2023-05-19T07:00:37.299Z,0.95
2023-05-19T07:01:58.274Z,0.92
2023-05-19T07:03:16.912Z,0.98
2023-05-19T07:04:50.051Z,0.56
2023-05-19T07:06:10.373Z,1.04
2023-05-19T07:07:34.125Z,0.84
2023-05-19T07:09:00.708Z,1.75
2023-05-19T07:10:26.634Z,1.23
2023-05-19T07:11:45.331Z,0.89
2023-05-19T07:13:05.546Z,1.04
2023-05-19T07:14:25.750Z,0.97
2023-05-19T07:15:51.120Z,1.03
2023-05-19T07:17:17.122Z,1.06
2023-05-19T07:18:45.330Z,0.69
2023-05-19T07:20:06.824Z,0.98
2023-05-19T07:21:36.775Z,0.49
2023-05-19T07:23:00.955Z,1.2
2023-05-19T07:24:45.214Z,1.38
2023-05-19T07:26:16.337Z,0.83
2023-05-19T07:27:43.557Z,1.06
2023-05-19T07:29:08.721Z,1.55
2023-05-19T07:30:27.358Z,1.07
2023-05-19T07:31:49.803Z,0.98
2023-05-19T07:33:08.458Z,1.19
2023-05-19T07:34:34.590Z,1.41
2023-05-19T07:35:53.736Z,0.88
2023-05-19T07:37:17.875Z,1.04
2023-05-19T07:38:39.638Z,1.09
2023-05-19T07:40:07.708Z,1.49
2023-05-19T07:41:41.455Z,0.54
2023-05-19T07:44:29.149Z,0.78
2023-05-19T07:45:48.469Z,1.44
2023-05-19T07:47:08.992Z,1.06
2023-05-19T07:48:32.733Z,0.84
2023-05-19T07:49:53.523Z,1.05
2023-05-19T07:51:23.661Z,1.32
2023-05-19T07:52:45.731Z,0.89
2023-05-19T07:54:07.226Z,1.28
2023-05-19T07:55:37.085Z,1.96
2023-05-19T07:57:00.818Z,1.55
2023-05-19T07:58:29.962Z,1.33
2023-05-19T07:59:51.377Z,1.24
2023-05-19T08:01:13.876Z,1.14
2023-05-19T08:02:39.184Z,0.79
2023-05-19T08:04:04.262Z,0.59
2023-05-19T08:05:29.751Z,1.21
2023-05-19T08:06:54.394Z,1.14
2023-05-19T08:08:24.021Z,0.84
2023-05-19T08:09:47.114Z,0.6
2023-05-19T08:11:06.607Z,0.84
2023-05-19T08:12:30.406Z,0.5
2023-05-19T08:13:57.850Z,1.74
2023-05-19T08:15:26.639Z,0.71
2023-05-19T08:16:47.931Z,0.56
2023-05-19T08:18:06.543Z,0.9
2023-05-19T08:19:26.051Z,1.34
2023-05-19T08:20:53.907Z,0.68
2023-05-19T08:22:19.164Z,1.19
2023-05-19T08:23:40.586Z,1.56
2023-05-19T08:25:16.910Z,1.65
2023-05-19T08:26:37.888Z,1.16
2023-05-19T08:28:02.726Z,1.44
2023-05-19T08:29:25.641Z,1.09
2023-05-19T08:30:55.303Z,1.06
2023-05-19T08:32:23.337Z,0.92
2023-05-19T08:33:44.328Z,1.39
2023-05-19T08:35:06.506Z,0.57
2023-05-19T08:36:34.014Z,1.35
2023-05-19T08:37:58.428Z,1.12
2023-05-19T08:39:19.627Z,0.75
2023-05-19T08:40:41.503Z,1.06
2023-05-19T08:42:00.661Z,2.43
2023-05-19T08:43:22.159Z,1.02
2023-05-19T08:44:44.455Z,0.8
2023-05-19T08:46:08.699Z,0.84
2023-05-19T08:47:26.744Z,1.09
2023-05-19T08:48:54.703Z,1.64
2023-05-19T08:50:21.483Z,0.85
2023-05-19T08:51:42.309Z,0.48
2023-05-19T08:53:01.702Z,0.88
2023-05-19T08:54:22.851Z,1.26
2023-05-19T08:55:52.851Z,0.6
2023-05-19T08:57:10.473Z,1.26
2023-05-19T08:58:31.326Z,1.15
2023-05-19T08:59:57.071Z,1.88
2023-05-19T09:01:20.146Z,1.12
2023-05-19T09:02:50.273Z,0.62
2023-05-19T09:04:06.171Z,0.57
2023-05-19T09:05:33.181Z,0.87
2023-05-19T09:07:01.114Z,0.99
2023-05-19T09:08:38.605Z,1.14
2023-05-19T09:10:00.236Z,1.43
2023-05-19T09:11:18.717Z,0.99
2023-05-19T09:12:40.915Z,0.71
2023-05-19T09:14:00.411Z,0.62
2023-05-19T09:15:23.047Z,0.59
2023-05-19T09:16:43.646Z,0.85
2023-05-19T09:18:15.111Z,0.98
2023-05-19T09:19:42.242Z,0.77
2023-05-19T09:21:06.792Z,0.67
2023-05-19T09:22:31.531Z,0.73
2023-05-19T09:25:34.407Z,0.82
2023-05-19T09:26:52.324Z,0.6
2023-05-19T09:28:27.572Z,0.76
2023-05-19T09:29:51.091Z,0.83
2023-05-19T09:31:17.799Z,1.04
2023-05-19T09:32:43.860Z,0.77
2023-05-19T09:34:18.690Z,0.75
2023-05-19T09:35:38.551Z,0.45
2023-05-19T09:37:08.960Z,0.57
2023-05-19T09:38:27.599Z,0.59
2023-05-19T09:39:49.592Z,0.88
2023-05-19T09:41:09.973Z,0.77
2023-05-19T09:42:29.216Z,1.2
2023-05-19T09:43:56.206Z,1.79
2023-05-19T09:45:25.886Z,1.7
2023-05-19T09:46:45.207Z,0.71
2023-05-19T09:48:10.677Z,0.69
2023-05-19T09:49:32.451Z,0.81
2023-05-19T09:50:51.393Z,0.97
2023-05-19T09:52:17.802Z,1.71
2023-05-19T09:53:37.908Z,1.14
2023-05-19T09:55:10.023Z,0.74
2023-05-19T09:56:32.810Z,0.87
2023-05-19T09:57:50.548Z,0.91
2023-05-19T09:59:15.798Z,0.61
2023-05-19T10:00:41.346Z,1.04
2023-05-19T10:02:04.534Z,0.74
2023-05-19T10:03:26.133Z,0.72
2023-05-19T10:05:00.579Z,0.82
2023-05-19T10:06:24.069Z,0.87
2023-05-19T10:07:47.392Z,0.33
2023-05-19T10:09:08.843Z,0.55
2023-05-19T10:10:39.909Z,0.6
2023-05-19T10:12:02.537Z,0.75
2023-05-19T10:13:33.204Z,0.15
2023-05-19T10:14:56.020Z,0.51
2023-05-19T10:16:20.992Z,0.83
2023-05-19T10:17:49.010Z,0.7
2023-05-19T10:19:10.256Z,0.8
2023-05-19T10:20:34.323Z,1.15
2023-05-19T10:21:58.715Z,0.36
2023-05-19T10:23:19.233Z,0.65
2023-05-19T10:24:56.875Z,0.5
2023-05-19T10:26:20.245Z,0.56
2023-05-19T10:27:47.190Z,1.01
2023-05-19T10:29:07.128Z,0.56
2023-05-19T10:30:31.197Z,0.98
2023-05-19T10:31:56.046Z,0.81
2023-05-19T10:33:15.616Z,0.74
2023-05-19T10:34:50.610Z,1.31
2023-05-19T10:36:08.203Z,1
2023-05-19T10:37:32.342Z,0.88
2023-05-19T10:39:04.280Z,0.5
2023-05-19T10:40:28.117Z,1
2023-05-19T10:41:59.259Z,1.12
2023-05-19T10:43:25.925Z,0.3
2023-05-19T10:44:58.944Z,0.54
2023-05-19T10:46:20.300Z,1.1
2023-05-19T10:47:50.977Z,0.68
2023-05-19T10:49:32.351Z,0.82
2023-05-19T10:50:56.378Z,0.35
2023-05-19T10:52:17.584Z,1.1
2023-05-19T10:53:46.403Z,1.16
2023-05-19T10:55:07.644Z,0.38
2023-05-19T10:56:33.368Z,0.45
2023-05-19T10:57:54.536Z,1.01
2023-05-19T10:59:18.310Z,0.75
2023-05-19T11:00:39.683Z,0.64
2023-05-19T11:01:58.302Z,0.7
2023-05-19T11:03:20.312Z,0.45
2023-05-19T11:04:40.519Z,0.41
2023-05-19T11:06:04.416Z,1.22
2023-05-19T11:07:34.472Z,0.67
2023-05-19T11:08:56.873Z,0.92
2023-05-19T11:10:35.392Z,0.85
2023-05-19T11:12:01.381Z,0.81
2023-05-19T11:13:28.400Z,0.43
2023-05-19T11:14:45.527Z,0.97
2023-05-19T11:16:13.971Z,0.82
2023-05-19T11:17:39.821Z,0.76
2023-05-19T11:19:11.380Z,0.63
2023-05-19T11:20:33.485Z,0.77
2023-05-19T11:21:54.795Z,0.58
2023-05-19T11:23:28.065Z,1.68
2023-05-19T11:24:46.262Z,0.42
2023-05-19T11:26:11.993Z,0.42
2023-05-19T11:27:40.079Z,0.77
2023-05-19T11:29:11.576Z,0.68
2023-05-19T11:30:43.131Z,0.39
2023-05-19T11:32:13.315Z,1.09
2023-05-19T11:33:37.571Z,1.23
2023-05-19T11:35:06.244Z,0.99
2023-05-19T11:36:29.779Z,0.79
2023-05-19T11:37:51.563Z,0.57
2023-05-19T11:39:21.062Z,0.46
2023-05-19T11:40:47.535Z,1.12
2023-05-19T11:42:08.381Z,0.74
2023-05-19T11:43:33.077Z,0.56
2023-05-19T11:44:55.378Z,1.16
2023-05-19T11:46:19.194Z,1.45
2023-05-19T11:47:59.996Z,1.28
2023-05-19T11:49:06.934Z,0.67
2023-05-19T11:50:27.491Z,1.16
2023-05-19T11:51:51.064Z,0.46
2023-05-19T11:53:15.291Z,0.27
2023-05-19T11:54:36.541Z,0.69
2023-05-19T11:57:33.950Z,0.78
2023-05-19T11:59:03.504Z,0.49
2023-05-19T12:00:24.112Z,0.57
2023-05-19T12:01:45.104Z,0.57
2023-05-19T12:03:12.548Z,1.14
2023-05-19T12:04:43.227Z,0.94
2023-05-19T12:06:12.495Z,0.78
2023-05-19T12:07:47.782Z,0.73
2023-05-19T12:09:16.470Z,0.91
2023-05-19T12:10:44.763Z,1.26
2023-05-19T12:12:09.250Z,0.9
2023-05-19T12:13:32.798Z,1.43
2023-05-19T12:16:25.452Z,0.41
2023-05-19T12:17:47.427Z,0.48
2023-05-19T12:19:11.934Z,0.72
2023-05-19T12:20:30.063Z,0.64
2023-05-19T12:21:58.882Z,0.72
2023-05-19T12:23:23.400Z,0.92
2023-05-19T12:24:50.954Z,0.82
2023-05-19T12:26:15.134Z,1.03
2023-05-19T12:27:46.566Z,0.62
2023-05-19T12:29:09.893Z,1.03
2023-05-19T12:30:36.780Z,0.78
2023-05-19T12:32:14.179Z,0.48
2023-05-19T12:33:40.541Z,0.56
2023-05-19T12:35:04.042Z,0.69
2023-05-19T12:36:25.608Z,0.94
2023-05-19T12:37:49.874Z,0.95
2023-05-19T12:39:16.267Z,0.63
2023-05-19T12:40:51.101Z,0.79
2023-05-19T12:43:38.339Z,0.44
2023-05-19T12:44:59.319Z,0.07
2023-05-19T12:46:23.386Z,0.48
2023-05-19T12:47:44.712Z,0.15
2023-05-19T12:49:05.885Z,1
2023-05-19T12:50:35.327Z,1.25
2023-05-19T12:51:56.960Z,1.37
2023-05-19T12:53:20.148Z,0.77
2023-05-19T12:54:43.226Z,0.17
2023-05-19T12:56:11.479Z,0.61
2023-05-19T12:57:39.512Z,1.32
2023-05-19T12:59:02.646Z,2.51
2023-05-19T13:00:30.929Z,1.77
2023-05-19T13:02:05.989Z,1.95
2023-05-19T13:03:26.709Z,1.3
2023-05-19T13:06:24.574Z,1.2
2023-05-19T13:07:44.103Z,2.28
2023-05-19T13:09:01.898Z,1.35
2023-05-19T13:10:30.830Z,0.77
2023-05-19T13:11:50.994Z,1.24
2023-05-19T13:13:17.351Z,0.96
2023-05-19T13:14:38.721Z,1.51
2023-05-19T13:16:01.096Z,1.07
2023-05-19T13:17:30.234Z,0.44
2023-05-19T13:18:51.414Z,0.44
2023-05-19T13:20:14.849Z,0.49
2023-05-19T13:21:32.708Z,0.79
2023-05-19T13:22:53.787Z,1.04
2023-05-19T13:24:21.888Z,0.49
2023-05-19T13:26:00.182Z,1.2
2023-05-19T13:27:24.381Z,0.37
2023-05-19T13:28:54.736Z,0.48
2023-05-19T13:30:17.499Z,0.47
2023-05-19T13:31:43.771Z,0.75
2023-05-19T13:33:10.915Z,0.61
2023-05-19T13:34:35.378Z,0.76
2023-05-19T13:35:58.370Z,0.69
2023-05-19T13:37:21.739Z,1.35
2023-05-19T13:38:44.047Z,1.14
2023-05-19T13:40:05.590Z,1.08
2023-05-19T13:41:28.973Z,0.71
2023-05-19T13:42:52.705Z,0.84
2023-05-19T13:44:11.958Z,0.75
2023-05-19T13:45:29.962Z,0.88
2023-05-19T13:46:52.382Z,0.84
2023-05-19T13:48:20.582Z,0.59
2023-05-19T13:49:43.772Z,0.35
2023-05-19T13:51:09.203Z,0.63
2023-05-19T13:52:28.191Z,0.79
2023-05-19T13:53:49.046Z,0.58
2023-05-19T13:55:15.395Z,0.76
2023-05-19T13:56:42.595Z,0.64
2023-05-19T13:58:06.730Z,0.57
2023-05-19T13:59:28.485Z,0.59
2023-05-19T14:00:46.318Z,0.51
2023-05-19T14:02:23.168Z,0.52
2023-05-19T14:03:46.360Z,0.43
2023-05-19T14:05:08.478Z,0.95
2023-05-19T14:06:26.321Z,1.42
2023-05-19T14:07:50.755Z,0.64
2023-05-19T14:09:09.281Z,0.68
2023-05-19T14:10:36.798Z,0.69
2023-05-19T14:12:02.177Z,0.2
2023-05-19T14:13:32.873Z,0.9
2023-05-19T14:14:54.251Z,0.37
2023-05-19T14:16:18.269Z,0.71
2023-05-19T14:17:40.143Z,0.49
2023-05-19T14:19:05.201Z,0.76
2023-05-19T14:20:22.447Z,0.54
2023-05-19T14:21:52.677Z,0.66
2023-05-19T14:23:13.909Z,0.66
2023-05-19T14:24:33.008Z,1.12
2023-05-19T14:25:52.542Z,0.49
2023-05-19T14:27:15.206Z,1.2
2023-05-19T14:28:46.424Z,1.16
2023-05-19T14:30:18.710Z,0.92
2023-05-19T14:31:41.529Z,2.25
2023-05-19T14:33:09.361Z,0.98
2023-05-19T14:34:38.071Z,0.63
2023-05-19T14:35:59.399Z,1.71
2023-05-19T14:37:25.427Z,0.57
2023-05-19T14:38:46.585Z,1.64
2023-05-19T14:40:06.770Z,1.9
2023-05-19T14:41:37.345Z,1.28
2023-05-19T14:43:06.088Z,1.44
2023-05-19T14:44:24.158Z,1.57
2023-05-19T14:45:56.548Z,1.85
2023-05-19T14:47:19.060Z,1.68
2023-05-19T14:48:45.860Z,1.17
2023-05-19T14:50:18.060Z,1.1
2023-05-19T14:51:40.421Z,0.86
2023-05-19T14:52:57.939Z,0.25
2023-05-19T14:54:25.854Z,0.38
2023-05-19T14:55:55.285Z,1.18
2023-05-19T14:57:24.051Z,0.75
2023-05-19T14:58:48.547Z,0.13
2023-05-19T15:00:09.609Z,0.84
2023-05-19T15:01:43.323Z,0.7
2023-05-19T15:03:05.656Z,0.24
2023-05-19T15:04:25.594Z,0.5
2023-05-19T15:05:51.897Z,0.74
2023-05-19T15:08:45.180Z,0.33
2023-05-19T15:10:03.280Z,0.34
2023-05-19T15:11:29.424Z,1
2023-05-19T15:12:57.732Z,0.27
2023-05-19T15:14:24.921Z,0.84
2023-05-19T15:16:15.334Z,0.23
2023-05-19T15:17:23.041Z,0.65
2023-05-19T15:18:53.209Z,1.13
2023-05-19T15:20:12.029Z,1.11
2023-05-19T15:21:43.098Z,0.99
2023-05-19T15:23:03.598Z,0.35
2023-05-19T15:24:27.395Z,0.58
2023-05-19T15:25:48.988Z,0.25
2023-05-19T15:27:08.584Z,0.57
2023-05-19T15:28:27.264Z,0.63
2023-05-19T15:29:57.434Z,0.31
2023-05-19T15:31:23.177Z,0.62
2023-05-19T15:32:43.150Z,1.2
2023-05-19T15:34:06.207Z,1.32
2023-05-19T15:35:24.472Z,1.07
2023-05-19T15:36:43.331Z,0.92
2023-05-19T15:38:02.220Z,1.21
2023-05-19T15:39:34.242Z,1.56
2023-05-19T15:40:54.203Z,1.25
2023-05-19T15:42:11.218Z,0.47
2023-05-19T15:43:35.495Z,0.28
2023-05-19T15:44:58.644Z,0.48
2023-05-19T15:46:22.361Z,0.81
2023-05-19T15:47:44.636Z,0.88
2023-05-19T15:49:08.750Z,1
2023-05-19T15:50:32.098Z,1.07
2023-05-19T15:51:53.263Z,0.79
2023-05-19T15:53:16.825Z,0.89
2023-05-19T15:54:37.884Z,0.56
2023-05-19T15:55:57.641Z,0.19
2023-05-19T15:57:24.041Z,0.71
2023-05-19T15:58:45.483Z,1.23
2023-05-19T16:00:13.123Z,0.68
2023-05-19T16:01:36.973Z,0.54
2023-05-19T16:02:55.701Z,0.42
2023-05-19T16:04:19.380Z,0.34
2023-05-19T16:05:43.716Z,0
2023-05-19T16:07:12.313Z,0.55
2023-05-19T16:08:34.441Z,0.78
2023-05-19T16:10:00.326Z,0.53
2023-05-19T16:11:19.203Z,0.11
2023-05-19T16:12:51.092Z,0.57
2023-05-19T16:14:09.591Z,0.34
2023-05-19T16:15:27.254Z,0.48
2023-05-19T16:16:49.489Z,0
2023-05-19T16:18:14.230Z,0
2023-05-19T16:19:41.046Z,0.82
2023-05-19T16:21:06.067Z,0
2023-05-19T16:22:24.373Z,0
2023-05-19T16:23:46.941Z,0.37
2023-05-19T16:25:16.168Z,0.42
2023-05-19T16:26:41.731Z,0.17
2023-05-19T16:28:16.272Z,0.12
2023-05-19T16:29:44.288Z,0.34
2023-05-19T16:31:11.435Z,0.43
2023-05-19T16:32:43.725Z,0.3
2023-05-19T16:34:02.308Z,0.29
2023-05-19T16:35:22.473Z,0.71
2023-05-19T16:36:44.180Z,0.52
2023-05-19T16:38:08.217Z,0.93
2023-05-19T16:39:35.347Z,0.6
2023-05-19T16:40:57.476Z,0.32
2023-05-19T16:42:16.148Z,0.55
2023-05-19T16:43:35.584Z,1.05
2023-05-19T16:45:01.146Z,1.27
2023-05-19T16:46:22.398Z,0.9
2023-05-19T16:47:44.514Z,1.01
2023-05-19T16:49:02.297Z,1
2023-05-19T16:50:25.074Z,0.11
2023-05-19T16:51:46.755Z,0.44
2023-05-19T16:53:10.405Z,1.13
2023-05-19T16:54:34.968Z,1.01
2023-05-19T16:55:57.204Z,0.73
2023-05-19T16:57:16.842Z,0.68
2023-05-19T16:58:42.415Z,0.88
2023-05-19T17:00:07.771Z,1.29
2023-05-19T17:01:31.460Z,1.44
2023-05-19T17:02:54.564Z,1.33
2023-05-19T17:04:11.643Z,0.34
2023-05-19T17:05:38.232Z,0.65
2023-05-19T17:06:59.590Z,0.39
2023-05-19T17:08:17.593Z,0.52
2023-05-19T17:09:47.623Z,0.05
2023-05-19T17:11:11.361Z,0.11
2023-05-19T17:12:38.235Z,0.34
2023-05-19T17:14:10.815Z,0.37
2023-05-19T17:15:30.594Z,0.27
2023-05-19T17:16:51.521Z,0.57
2023-05-19T17:18:18.430Z,0.45
2023-05-19T17:19:41.347Z,0.09
2023-05-19T17:21:01.561Z,0.68
2023-05-19T17:22:21.474Z,0.8
2023-05-19T17:23:47.614Z,0.29
2023-05-19T17:25:06.505Z,1.03
2023-05-19T17:26:33.781Z,0.38
2023-05-19T17:28:12.271Z,0.85
2023-05-19T17:29:31.648Z,0.55
2023-05-19T17:30:53.539Z,0.52
2023-05-19T17:32:15.720Z,0.31
2023-05-19T17:33:32.507Z,0.25
2023-05-19T17:34:57.923Z,0.28
2023-05-19T17:36:17.793Z,0.52
2023-05-19T17:37:34.611Z,0.35
2023-05-19T17:39:02.908Z,0.08
2023-05-19T17:40:25.486Z,0.47
2023-05-19T17:41:51.804Z,0.51
2023-05-19T17:43:14.170Z,0.43
2023-05-19T17:44:45.339Z,0.62
2023-05-19T17:46:02.350Z,0
2023-05-19T17:47:25.530Z,0.15
2023-05-19T17:48:54.268Z,0
2023-05-19T17:50:13.445Z,0.29
2023-05-19T17:51:33.142Z,0.16
2023-05-19T17:52:52.606Z,0
2023-05-19T17:54:13.566Z,0.32
2023-05-19T17:55:33.826Z,0
2023-05-19T17:56:53.473Z,0
2023-05-19T17:58:21.917Z,0
2023-05-19T17:59:40.648Z,0
2023-05-19T18:01:08.729Z,0
2023-05-19T18:02:30.325Z,0
2023-05-19T18:03:53.278Z,0.2
2023-05-19T18:06:52.283Z,0
2023-05-19T18:08:14.847Z,0.18
2023-05-19T18:09:34.955Z,0.13
2023-05-19T18:10:53.548Z,0
2023-05-19T18:12:18.651Z,0.16
2023-05-19T18:13:36.489Z,0
2023-05-19T18:14:55.924Z,0.25
2023-05-19T18:16:18.548Z,0.23
2023-05-19T18:17:42.861Z,0.32
2023-05-19T18:19:05.463Z,0.13
2023-05-19T18:20:26.457Z,0.25
2023-05-19T18:22:01.894Z,0
2023-05-19T18:23:31.394Z,0
2023-05-19T18:24:54.508Z,0
2023-05-19T18:26:13.332Z,0.18
2023-05-19T18:27:46.729Z,0
2023-05-19T18:29:11.192Z,0.29
2023-05-19T18:30:31.863Z,0
2023-05-19T18:31:48.685Z,0
2023-05-19T18:33:09.246Z,0.12
2023-05-19T18:34:28.680Z,0.55
2023-05-19T18:35:50.525Z,0.41
2023-05-19T18:37:12.805Z,0.52
2023-05-19T18:38:31.436Z,0.45
2023-05-19T18:39:59.355Z,0.2
2023-05-19T18:41:22.630Z,0
2023-05-19T18:42:43.392Z,0
2023-05-19T18:44:04.032Z,0
2023-05-19T18:45:44.880Z,0
2023-05-19T18:47:11.391Z,0
2023-05-19T18:48:33.474Z,0.33
2023-05-19T18:49:53.662Z,0.27
2023-05-19T18:51:11.843Z,0.31
2023-05-19T18:52:32.488Z,0.11
2023-05-19T18:54:02.876Z,0.32
2023-05-19T18:55:21.756Z,0
2023-05-19T18:56:44.238Z,0.28
2023-05-19T18:58:11.016Z,0.19
2023-05-19T18:59:34.542Z,0.07
2023-05-19T19:01:01.281Z,0
2023-05-19T19:02:40.881Z,0.07
2023-05-19T19:04:13.239Z,0
2023-05-19T19:05:31.763Z,0.19
2023-05-19T19:06:53.479Z,0
2023-05-19T19:08:21.151Z,0
2023-05-19T19:09:42.773Z,0
2023-05-19T19:11:00.730Z,0.43
2023-05-19T19:12:28.279Z,0.21
2023-05-19T19:13:57.766Z,0
2023-05-19T19:15:36.886Z,0.15
2023-05-19T19:17:02.431Z,0
2023-05-19T19:18:25.872Z,0.34
2023-05-19T19:19:43.854Z,0.32
2023-05-19T19:21:16.520Z,0
2023-05-19T19:22:51.330Z,0
2023-05-19T19:24:14.850Z,0.22
2023-05-19T19:25:40.502Z,0
2023-05-19T19:28:31.252Z,0.35
2023-05-19T19:29:52.162Z,0.36
2023-05-19T19:31:17.886Z,0
2023-05-19T19:32:42.993Z,0.25
2023-05-19T19:34:01.499Z,0